createdAt,value
2019-04-25T00:01:16.102Z,9.70
2019-04-25T00:03:44.671Z,9.60
2019-04-25T00:06:17.434Z,9.50
2019-04-25T00:08:45.354Z,9.50
2019-04-25T00:11:13.531Z,9.40
2019-04-25T00:13:44.092Z,9.40
2019-04-25T00:16:12.737Z,9.40
2019-04-25T00:18:43.050Z,9.40
2019-04-25T00:21:27.296Z,9.40
2019-04-25T00:24:02.717Z,9.30
2019-04-25T00:26:35.470Z,9.40
2019-04-25T00:29:04.041Z,9.40
2019-04-25T00:31:32.167Z,9.40
2019-04-25T00:34:02.179Z,9.50
2019-04-25T00:36:34.294Z,9.40
2019-04-25T00:39:03.836Z,9.40
2019-04-25T00:41:32.070Z,9.20
2019-04-25T00:44:03.168Z,9.10
2019-04-25T00:46:32.225Z,8.90
2019-04-25T00:49:00.368Z,8.80
2019-04-25T00:51:29.198Z,8.60
2019-04-25T00:53:57.606Z,8.50
2019-04-25T00:56:26.800Z,8.50
2019-04-25T00:59:22.243Z,8.60
2019-04-25T01:02:01.367Z,8.70
2019-04-25T01:04:38.549Z,8.60
2019-04-25T01:07:08.136Z,8.60
2019-04-25T01:09:42.306Z,8.60
2019-04-25T01:12:13.441Z,8.60
2019-04-25T01:14:42.014Z,8.60
2019-04-25T01:17:11.539Z,8.50
2019-04-25T01:19:39.463Z,8.40
2019-04-25T01:22:08.798Z,8.30
2019-04-25T01:24:37.610Z,8.30
2019-04-25T01:27:07.477Z,8.30
2019-04-25T01:29:35.451Z,8.20
2019-04-25T01:32:07.331Z,8.10
2019-04-25T01:35:03.922Z,8.10
2019-04-25T01:37:56.061Z,7.90
2019-04-25T01:40:49.417Z,7.90
2019-04-25T01:43:35.386Z,7.90
2019-04-25T01:46:04.932Z,8.00
2019-04-25T01:48:38.318Z,8.00
2019-04-25T01:51:08.527Z,8.00
2019-04-25T01:53:36.314Z,8.00
2019-04-25T01:56:07.627Z,8.10
2019-04-25T01:58:33.943Z,8.00
2019-04-25T02:01:04.588Z,7.90
2019-04-25T02:03:35.613Z,7.90
2019-04-25T02:06:04.957Z,8.00
2019-04-25T02:08:36.457Z,7.90
2019-04-25T02:11:30.042Z,7.90
2019-04-25T02:13:58.883Z,7.90
2019-04-25T02:16:28.563Z,7.90
2019-04-25T02:18:57.797Z,7.90
2019-04-25T02:21:25.714Z,7.90
2019-04-25T02:23:56.674Z,7.80
2019-04-25T02:26:30.412Z,7.80
2019-04-25T02:29:01.582Z,7.70
2019-04-25T02:31:31.669Z,7.70
2019-04-25T02:34:00.709Z,7.60
2019-04-25T02:36:34.715Z,7.40
2019-04-25T02:39:09.115Z,7.40
2019-04-25T02:41:38.592Z,7.40
2019-04-25T02:44:10.111Z,7.40
2019-04-25T02:47:00.569Z,7.40
2019-04-25T02:49:50.272Z,7.50
2019-04-25T02:52:25.280Z,7.50
2019-04-25T02:54:58.775Z,7.50
2019-04-25T02:57:34.423Z,7.50
2019-04-25T03:00:08.690Z,7.50
2019-04-25T03:02:38.312Z,7.50
2019-04-25T03:05:12.015Z,7.50
2019-04-25T03:07:44.525Z,7.50
2019-04-25T03:10:14.823Z,7.50
2019-04-25T03:12:44.543Z,7.50
2019-04-25T03:15:14.458Z,7.60
2019-04-25T03:17:44.414Z,7.60
2019-04-25T03:20:31.171Z,7.60
2019-04-25T03:23:10.828Z,7.30
2019-04-25T03:25:40.671Z,7.20
2019-04-25T03:28:13.540Z,7.00
2019-04-25T03:30:44.738Z,6.90
2019-04-25T03:33:20.066Z,6.90
2019-04-25T03:35:47.978Z,7.00
2019-04-25T03:38:15.735Z,7.10
2019-04-25T03:40:44.622Z,7.20
2019-04-25T03:43:15.034Z,7.30
2019-04-25T03:45:43.166Z,7.30
2019-04-25T03:48:18.252Z,7.40
2019-04-25T03:50:47.489Z,7.40
2019-04-25T03:53:17.059Z,7.30
2019-04-25T03:55:46.679Z,7.20
2019-04-25T03:58:18.313Z,7.10
2019-04-25T04:00:54.564Z,7.20
2019-04-25T04:03:24.131Z,7.10
2019-04-25T04:05:55.543Z,7.10
2019-04-25T04:08:26.386Z,7.10
2019-04-25T04:10:58.524Z,7.10
2019-04-25T04:13:30.240Z,7.00
2019-04-25T04:16:06.865Z,7.00
2019-04-25T04:19:00.033Z,7.00
2019-04-25T04:21:47.751Z,7.10
2019-04-25T04:24:25.532Z,7.00
2019-04-25T04:27:17.879Z,6.90
2019-04-25T04:29:46.665Z,7.00
2019-04-25T04:32:16.343Z,6.90
2019-04-25T04:34:46.704Z,7.00
2019-04-25T04:37:18.071Z,7.00
2019-04-25T04:39:48.412Z,7.00
2019-04-25T04:42:16.600Z,7.00
2019-04-25T04:44:45.792Z,7.00
2019-04-25T04:47:17.374Z,7.00
2019-04-25T04:49:54.575Z,7.10
2019-04-25T04:52:28.866Z,7.20
2019-04-25T04:55:05.182Z,7.30
2019-04-25T04:57:33.330Z,7.30
2019-04-25T05:00:03.642Z,7.40
2019-04-25T05:02:57.510Z,7.40
2019-04-25T05:06:04.583Z,7.40
2019-04-25T05:08:41.087Z,7.40
2019-04-25T05:11:12.874Z,7.30
2019-04-25T05:13:44.057Z,7.50
2019-04-25T05:16:14.272Z,7.70
2019-04-25T05:18:45.831Z,7.80
2019-04-25T05:21:16.188Z,7.90
2019-04-25T05:23:48.705Z,7.90
2019-04-25T05:26:17.589Z,8.20
2019-04-25T05:28:47.708Z,8.20
2019-04-25T05:31:51.342Z,8.10
2019-04-25T05:34:19.747Z,8.20
2019-04-25T05:36:50.543Z,8.30
2019-04-25T05:39:22.322Z,8.40
2019-04-25T05:42:24.786Z,8.50
2019-04-25T05:45:04.582Z,8.70
2019-04-25T05:47:38.771Z,9.00
2019-04-25T05:50:15.768Z,9.40
2019-04-25T05:53:04.822Z,9.70
2019-04-25T05:55:41.153Z,9.70
2019-04-25T05:58:13.986Z,9.80
2019-04-25T06:00:45.201Z,9.80
2019-04-25T06:03:17.291Z,10.00
2019-04-25T06:06:19.234Z,10.20
2019-04-25T06:08:54.356Z,10.20
2019-04-25T06:14:46.698Z,10.40
2019-04-25T06:17:27.786Z,10.50
2019-04-25T06:20:51.128Z,10.60
2019-04-25T06:24:23.647Z,10.70
2019-04-25T06:27:03.789Z,11.00
2019-04-25T06:29:34.707Z,11.00
2019-04-25T06:32:07.830Z,11.20
2019-04-25T06:38:27.294Z,11.50
2019-04-25T06:40:54.719Z,11.50
2019-04-25T06:43:34.241Z,11.70
2019-04-25T06:46:30.270Z,11.80
2019-04-25T06:49:19.010Z,12.00
2019-04-25T06:51:52.332Z,12.10
2019-04-25T06:54:25.250Z,12.60
2019-04-25T06:56:58.173Z,12.80
2019-04-25T06:59:30.528Z,13.00
2019-04-25T07:02:07.390Z,14.00
2019-04-25T07:04:36.686Z,15.30
2019-04-25T07:07:14.928Z,17.40
2019-04-25T07:09:59.708Z,18.60
2019-04-25T07:12:45.184Z,19.50
2019-04-25T07:15:19.681Z,19.60
2019-04-25T07:18:05.039Z,20.00
2019-04-25T07:20:51.339Z,20.90
2019-04-25T07:23:21.014Z,19.30
2019-04-25T07:27:00.150Z,19.70
2019-04-25T07:29:47.260Z,19.20
2019-04-25T07:32:36.883Z,20.40
2019-04-25T07:35:49.540Z,21.00
2019-04-25T07:39:10.404Z,20.10
2019-04-25T07:42:37.573Z,20.80
2019-04-25T07:45:28.754Z,22.30
2019-04-25T07:48:34.006Z,22.80
2019-04-25T07:51:01.841Z,22.90
2019-04-25T07:54:37.453Z,23.60
2019-04-25T08:01:40.572Z,23.30
2019-04-25T08:07:41.440Z,23.30
2019-04-25T08:11:04.399Z,23.30
2019-04-25T08:13:50.608Z,23.50
2019-04-25T08:16:44.271Z,24.40
2019-04-25T08:19:49.395Z,24.10
2019-04-25T08:22:25.561Z,23.80
2019-04-25T08:24:55.498Z,24.70
2019-04-25T08:27:31.153Z,25.00
2019-04-25T08:30:04.365Z,24.50
2019-04-25T08:32:36.383Z,22.80
2019-04-25T08:35:13.857Z,23.10
2019-04-25T08:37:48.033Z,21.80
2019-04-25T08:40:23.795Z,22.90
2019-04-25T08:42:56.929Z,23.60
2019-04-25T08:45:29.179Z,25.90
2019-04-25T08:48:13.463Z,26.00
2019-04-25T08:51:19.278Z,24.60
2019-04-25T08:53:57.257Z,23.50
2019-04-25T09:00:59.327Z,24.00
2019-04-25T09:03:45.761Z,25.40
2019-04-25T09:06:59.452Z,23.60
2019-04-25T09:10:35.797Z,22.30
2019-04-25T09:13:35.856Z,24.30
2019-04-25T09:16:13.479Z,24.70
2019-04-25T09:19:24.103Z,23.30
2019-04-25T09:22:14.442Z,22.20
2019-04-25T09:25:08.907Z,22.00
2019-04-25T09:31:50.316Z,23.10
2019-04-25T09:34:33.698Z,21.00
2019-04-25T09:37:03.175Z,20.60
2019-04-25T09:39:59.377Z,20.70
2019-04-25T09:42:45.206Z,20.80
2019-04-25T09:46:19.510Z,20.60
2019-04-25T09:48:57.821Z,20.60
2019-04-25T09:52:03.449Z,20.50
2019-04-25T09:54:45.130Z,20.70
2019-04-25T09:57:48.377Z,21.20
2019-04-25T10:00:43.246Z,21.30
2019-04-25T10:07:04.815Z,20.90
2019-04-25T10:09:35.114Z,21.00
2019-04-25T10:12:06.647Z,20.70
2019-04-25T10:15:20.314Z,20.80
2019-04-25T10:17:48.863Z,20.70
2019-04-25T10:20:33.261Z,20.90
2019-04-25T10:23:07.747Z,21.00
2019-04-25T10:25:41.953Z,21.00
2019-04-25T10:28:23.377Z,21.10
2019-04-25T10:30:56.860Z,21.30
2019-04-25T10:33:25.797Z,21.20
2019-04-25T10:36:00.580Z,21.00
2019-04-25T10:38:27.753Z,21.30
2019-04-25T10:40:58.547Z,21.70
2019-04-25T10:44:27.879Z,21.60
2019-04-25T10:48:18.841Z,22.10
2019-04-25T10:55:05.560Z,22.50
2019-04-25T10:58:16.223Z,22.30
2019-04-25T11:00:48.671Z,21.90
2019-04-25T11:03:55.949Z,22.20
2019-04-25T11:06:33.450Z,22.60
2019-04-25T11:09:24.275Z,22.50
2019-04-25T11:11:53.499Z,23.10
2019-04-25T11:14:32.011Z,22.80
2019-04-25T11:17:45.169Z,22.70
2019-04-25T11:20:44.562Z,22.50
2019-04-25T11:23:25.289Z,22.40
2019-04-25T11:26:10.893Z,22.20
2019-04-25T11:28:55.230Z,22.50
2019-04-25T11:31:53.317Z,22.40
2019-04-25T11:34:27.918Z,21.70
2019-04-25T11:37:06.674Z,22.20
2019-04-25T11:40:10.854Z,22.40
2019-04-25T11:42:58.206Z,22.40
2019-04-25T11:45:45.879Z,21.70
2019-04-25T11:49:15.203Z,22.70
2019-04-25T11:52:28.115Z,22.70
2019-04-25T11:54:56.827Z,22.50
2019-04-25T11:58:09.253Z,22.80
2019-04-25T12:01:57.228Z,21.90
2019-04-25T12:09:05.693Z,23.20
2019-04-25T12:15:33.263Z,22.60
2019-04-25T12:21:48.331Z,22.50
2019-04-25T12:24:18.735Z,22.90
2019-04-25T12:26:49.381Z,23.00
2019-04-25T12:29:24.298Z,23.00
2019-04-25T12:32:08.327Z,23.10
2019-04-25T12:34:43.697Z,22.80
2019-04-25T12:37:18.047Z,23.20
2019-04-25T12:39:52.394Z,23.10
2019-04-25T12:43:00.704Z,23.50
2019-04-25T12:46:13.264Z,23.00
2019-04-25T12:49:08.976Z,23.00
2019-04-25T12:51:55.095Z,23.20
2019-04-25T12:55:27.139Z,22.50
2019-04-25T12:58:47.861Z,22.50
2019-04-25T13:02:24.746Z,23.00
2019-04-25T13:05:10.969Z,22.80
2019-04-25T13:08:18.735Z,22.70
2019-04-25T13:11:16.593Z,22.70
2019-04-25T13:13:44.613Z,22.50
2019-04-25T13:16:15.749Z,22.80
2019-04-25T13:19:25.944Z,23.00
2019-04-25T13:22:39.770Z,23.00
2019-04-25T13:25:24.351Z,23.30
2019-04-25T13:28:29.063Z,23.20
2019-04-25T13:31:27.575Z,23.40
2019-04-25T13:34:45.124Z,23.80
2019-04-25T13:37:25.404Z,24.00
2019-04-25T13:40:00.477Z,24.10
2019-04-25T13:42:33.265Z,23.90
2019-04-25T13:45:07.827Z,24.10
2019-04-25T13:47:51.096Z,23.70
2019-04-25T13:51:10.694Z,24.00
2019-04-25T13:54:05.190Z,23.70
2019-04-25T13:56:50.101Z,24.20
2019-04-25T13:59:23.517Z,24.10
2019-04-25T14:02:20.263Z,24.20
2019-04-25T14:05:49.676Z,24.30
2019-04-25T14:08:33.550Z,24.70
2019-04-25T14:11:32.407Z,24.90
2019-04-25T14:14:26.785Z,24.20
2019-04-25T14:17:25.701Z,24.40
2019-04-25T14:31:05.298Z,24.20
2019-04-25T14:33:39.995Z,24.40
2019-04-25T14:36:10.301Z,24.80
2019-04-25T14:38:55.659Z,24.50
2019-04-25T14:41:42.552Z,24.40
2019-04-25T14:44:14.865Z,24.70
2019-04-25T14:46:47.421Z,24.40
2019-04-25T14:49:17.206Z,24.00
2019-04-25T14:51:58.113Z,23.90
2019-04-25T14:55:20.773Z,23.80
2019-04-25T14:57:57.214Z,23.70
2019-04-25T15:00:46.098Z,24.00
2019-04-25T15:03:20.967Z,24.20
2019-04-25T15:06:07.539Z,24.30
2019-04-25T15:08:36.790Z,24.20
2019-04-25T15:11:11.498Z,24.30
2019-04-25T15:13:49.860Z,24.40
2019-04-25T15:16:20.993Z,24.50
2019-04-25T15:18:48.769Z,24.70
2019-04-25T15:21:19.063Z,24.70
2019-04-25T15:24:00.230Z,24.60
2019-04-25T15:26:31.175Z,24.70
2019-04-25T15:29:09.457Z,24.70
2019-04-25T15:31:55.791Z,24.60
2019-04-25T15:37:56.874Z,24.70
2019-04-25T15:40:59.612Z,24.60
2019-04-25T15:44:45.109Z,24.60
2019-04-25T15:51:51.225Z,24.70
2019-04-25T15:58:21.155Z,24.80
2019-04-25T16:01:01.422Z,24.60
2019-04-25T16:03:37.291Z,24.50
2019-04-25T16:06:17.320Z,24.50
2019-04-25T16:08:52.668Z,24.30
2019-04-25T16:11:32.846Z,24.40
2019-04-25T16:14:00.867Z,24.30
2019-04-25T16:16:31.642Z,24.40
2019-04-25T16:19:22.182Z,24.20
2019-04-25T16:22:34.405Z,24.40
2019-04-25T16:25:49.446Z,24.50
2019-04-25T16:28:19.209Z,24.40
2019-04-25T16:30:53.182Z,24.40
2019-04-25T16:33:33.103Z,24.40
2019-04-25T16:35:58.983Z,24.20
2019-04-25T16:38:34.052Z,24.20
2019-04-25T16:41:05.750Z,24.10
2019-04-25T16:44:00.776Z,24.20
2019-04-25T16:46:32.187Z,24.10
2019-04-25T16:49:08.312Z,24.00
2019-04-25T16:51:51.378Z,23.80
2019-04-25T16:54:25.040Z,23.90
2019-04-25T16:56:53.081Z,23.80
2019-04-25T16:59:21.547Z,23.80
2019-04-25T17:01:49.808Z,23.80
2019-04-25T17:04:20.687Z,23.70
2019-04-25T17:06:53.299Z,23.70
2019-04-25T17:09:30.360Z,23.70
2019-04-25T17:12:00.636Z,23.70
2019-04-25T17:18:32.354Z,23.60
2019-04-25T17:21:16.766Z,23.60
2019-04-25T17:25:00.905Z,23.60
2019-04-25T17:27:57.695Z,23.50
2019-04-25T17:30:27.995Z,23.50
2019-04-25T17:33:56.047Z,23.50
2019-04-25T17:40:31.296Z,23.40
2019-04-25T17:43:11.569Z,23.40
2019-04-25T17:45:55.173Z,23.30
2019-04-25T17:48:27.650Z,23.30
2019-04-25T17:51:02.476Z,23.20
2019-04-25T17:53:39.953Z,23.20
2019-04-25T17:56:12.052Z,23.10
2019-04-25T17:58:39.815Z,23.20
2019-04-25T18:04:34.153Z,22.80
2019-04-25T18:07:08.009Z,22.80
2019-04-25T18:09:49.853Z,22.70
2019-04-25T18:12:38.699Z,22.70
2019-04-25T18:15:13.743Z,22.50
2019-04-25T18:17:52.090Z,22.40
2019-04-25T18:20:26.547Z,22.30
2019-04-25T18:23:15.384Z,22.30
2019-04-25T18:26:12.157Z,22.20
2019-04-25T18:28:53.153Z,22.00
2019-04-25T18:31:36.767Z,21.90
2019-04-25T18:34:09.275Z,21.80
2019-04-25T18:36:56.831Z,21.70
2019-04-25T18:40:22.784Z,21.70
2019-04-25T18:43:17.715Z,21.70
2019-04-25T18:45:58.550Z,21.60
2019-04-25T18:48:47.962Z,21.60
2019-04-25T18:51:17.553Z,21.40
2019-04-25T18:54:13.386Z,21.40
2019-04-25T18:56:58.655Z,21.30
2019-04-25T18:59:54.462Z,21.40
2019-04-25T19:02:46.587Z,21.20
2019-04-25T19:05:53.993Z,21.20
2019-04-25T19:08:29.079Z,21.20
2019-04-25T19:14:17.379Z,21.00
2019-04-25T19:17:43.278Z,20.90
2019-04-25T19:20:37.216Z,20.80
2019-04-25T19:23:54.724Z,20.60
2019-04-25T19:26:32.305Z,20.60
2019-04-25T19:32:40.618Z,20.40
2019-04-25T19:35:24.938Z,20.30
2019-04-25T19:38:00.062Z,20.40
2019-04-25T19:41:04.603Z,20.40
2019-04-25T19:44:06.835Z,20.40
2019-04-25T19:46:47.839Z,20.40
2019-04-25T19:49:42.949Z,20.30
2019-04-25T19:52:39.467Z,20.40
2019-04-25T19:55:08.186Z,20.30
2019-04-25T19:57:42.444Z,20.30
2019-04-25T20:00:12.272Z,20.30
2019-04-25T20:06:16.220Z,19.90
2019-04-25T20:09:04.391Z,19.80
2019-04-25T20:11:43.830Z,19.90
2019-04-25T20:14:14.388Z,19.70
2019-04-25T20:16:47.629Z,19.70
2019-04-25T20:19:29.281Z,19.60
2019-04-25T20:21:57.014Z,19.40
2019-04-25T20:24:42.079Z,19.40
2019-04-25T20:27:28.292Z,19.00
2019-04-25T20:29:59.626Z,18.70
2019-04-25T20:32:30.516Z,18.40
2019-04-25T20:35:13.457Z,18.30
2019-04-25T20:37:44.935Z,17.80
2019-04-25T20:40:47.684Z,17.20
2019-04-25T20:43:52.853Z,16.90
2019-04-25T20:46:20.630Z,16.80
2019-04-25T20:48:48.398Z,16.80
2019-04-25T20:51:17.944Z,16.80
2019-04-25T20:53:50.707Z,16.90
2019-04-25T20:56:19.382Z,16.90
2019-04-25T20:58:49.749Z,16.90
2019-04-25T21:04:31.397Z,16.90
2019-04-25T21:07:01.452Z,16.90
2019-04-25T21:09:34.389Z,16.90
2019-04-25T21:12:03.286Z,16.90
2019-04-25T21:14:52.726Z,16.80
2019-04-25T21:17:30.115Z,16.60
2019-04-25T21:20:04.492Z,16.40
2019-04-25T21:22:34.624Z,16.10
2019-04-25T21:25:05.729Z,16.00
2019-04-25T21:27:36.765Z,16.00
2019-04-25T21:30:08.317Z,15.90
2019-04-25T21:32:57.261Z,15.90
2019-04-25T21:35:28.830Z,15.70
2019-04-25T21:38:01.613Z,15.60
2019-04-25T21:40:51.345Z,15.50
2019-04-25T21:43:29.975Z,15.60
2019-04-25T21:46:12.713Z,15.50
2019-04-25T21:48:41.625Z,15.30
2019-04-25T21:51:30.291Z,15.30
2019-04-25T21:54:01.346Z,15.10
2019-04-25T21:56:33.259Z,15.00
2019-04-25T21:59:02.003Z,15.00
2019-04-25T22:01:33.181Z,14.90
2019-04-25T22:04:11.182Z,15.00
2019-04-25T22:06:39.753Z,14.90
2019-04-25T22:09:15.443Z,14.80
2019-04-25T22:11:49.153Z,14.70
2019-04-25T22:14:20.551Z,14.80
2019-04-25T22:16:49.416Z,14.80
2019-04-25T22:19:24.581Z,14.80
2019-04-25T22:21:53.996Z,14.80
2019-04-25T22:24:24.866Z,14.60
2019-04-25T22:26:54.915Z,14.60
2019-04-25T22:29:23.094Z,14.60
2019-04-25T22:31:59.800Z,14.60
2019-04-25T22:34:51.340Z,14.60
2019-04-25T22:37:11.032Z,14.40
2019-04-25T22:39:38.978Z,14.40
2019-04-25T22:42:07.009Z,14.30
2019-04-25T22:44:41.425Z,14.20
2019-04-25T22:47:09.087Z,14.20
2019-04-25T22:49:42.078Z,14.10
2019-04-25T22:52:11.531Z,14.10
2019-04-25T22:54:39.264Z,14.00
2019-04-25T22:57:09.823Z,13.80
2019-04-25T22:59:37.679Z,13.80
2019-04-25T23:02:30.551Z,13.70
2019-04-25T23:05:23.151Z,13.80
2019-04-25T23:08:24.517Z,13.70
2019-04-25T23:10:54.035Z,13.70
2019-04-25T23:13:25.108Z,13.60
2019-04-25T23:15:54.644Z,13.70
2019-04-25T23:18:23.893Z,13.40
2019-04-25T23:20:56.390Z,13.40
2019-04-25T23:23:32.293Z,13.40
2019-04-25T23:26:22.721Z,13.30
2019-04-25T23:28:51.871Z,13.20
2019-04-25T23:31:23.793Z,13.30
2019-04-25T23:33:58.030Z,13.30
2019-04-25T23:36:25.877Z,13.30
2019-04-25T23:38:56.422Z,13.30
2019-04-25T23:41:28.670Z,13.20
2019-04-25T23:43:56.427Z,13.20
2019-04-25T23:46:27.373Z,13.20
2019-04-25T23:48:55.316Z,13.20
2019-04-25T23:51:25.283Z,13.20
2019-04-25T23:53:53.382Z,13.20
2019-04-25T23:56:23.012Z,13.10
2019-04-25T23:58:53.418Z,13.10
